Quantico, Maryland
Current Conditions -  °F | °C
As of 2:54 PM on Friday 28 Nov 2014 (Local Time) from KSBY Reporting Station
Clear Clear  
Wind Chill: 34°   Ceiling: Unl
Heat Index: 42°   Visibility: 10mi
Dew Point: 19°   Wind: 16mph
Humidity: 40%   Direction: 320°NW
Pressure: 30.24"   Gusts: 23mph
Location:  38.37°N, 75.74°W
Report Text: KSBY 281954Z 32014G20KT 10SM CLR 06/M07 A3024 RMK AO2 SLP244 T00561072
Loading
Personal Weather Stations






























Interactive Weather Map New forecast layout! Learn more

10-Day Weather Forecast

Advertisements
Track Severe Weather on mobile